createdAt,value
2023-01-05T00:01:44.087Z,102347.33
2023-01-05T00:04:12.443Z,102352.16
2023-01-05T00:06:41.015Z,102353.05
2023-01-05T00:09:10.037Z,102356.19
2023-01-05T00:11:56.586Z,102346.45
2023-01-05T00:14:48.918Z,102333.89
2023-01-05T00:17:37.060Z,102331.86
2023-01-05T00:20:44.542Z,102331.86
2023-01-05T00:23:12.538Z,102344.45
2023-01-05T00:25:41.565Z,102331.30
2023-01-05T00:28:09.501Z,102331.86
2023-01-05T00:30:44.763Z,102333.89
2023-01-05T00:33:13.792Z,102325.32
2023-01-05T00:35:41.775Z,102333.56
2023-01-05T00:38:10.025Z,102327.84
2023-01-05T00:40:38.159Z,102324.14
2023-01-05T00:43:06.155Z,102321.30
2023-01-05T00:45:34.230Z,102314.73
2023-01-05T00:48:02.349Z,102310.18
2023-01-05T00:50:30.287Z,102297.59
2023-01-05T00:53:45.973Z,102281.37
2023-01-05T06:31:25.741Z,102211.31
2023-01-05T06:33:53.609Z,102215.53
2023-01-05T06:39:53.266Z,102221.55
2023-01-05T06:45:54.016Z,102226.64
2023-01-05T06:51:53.386Z,102242.93
2023-01-05T06:57:58.660Z,102257.70
2023-01-05T07:00:28.443Z,102267.97
2023-01-05T07:02:56.237Z,102282.45
2023-01-05T07:05:25.567Z,102275.82
2023-01-05T07:07:53.285Z,102252.34
2023-01-05T07:10:21.123Z,102255.74
2023-01-05T07:12:48.860Z,102265.16
2023-01-05T07:15:16.578Z,102269.73
2023-01-05T07:17:44.314Z,102263.49
2023-01-05T07:20:12.021Z,102275.72
2023-01-05T07:22:39.843Z,102284.52
2023-01-05T07:25:08.031Z,102294.49
2023-01-05T07:27:36.089Z,102299.13
2023-01-05T07:30:04.020Z,102286.51
2023-01-05T07:32:31.804Z,102283.44
2023-01-05T07:34:59.653Z,102295.14
2023-01-05T07:37:27.765Z,102281.37
2023-01-05T07:39:55.595Z,102298.22
2023-01-05T07:42:23.432Z,102282.45
2023-01-05T07:44:51.320Z,102276.77
2023-01-05T07:47:19.512Z,102284.74
2023-01-05T07:49:47.627Z,102295.44
2023-01-05T07:52:15.386Z,102292.85
2023-01-05T07:54:43.122Z,102283.47
2023-01-05T07:57:10.853Z,102294.33
2023-01-05T07:59:38.706Z,102294.03
2023-01-05T08:02:06.663Z,102288.41
2023-01-05T08:04:34.622Z,102288.96
2023-01-05T08:07:03.473Z,102278.92
2023-01-05T08:09:49.793Z,102289.45
2023-01-05T08:12:17.526Z,102302.37
2023-01-05T08:14:45.298Z,102306.29
2023-01-05T08:17:13.074Z,102308.62
2023-01-05T08:19:40.834Z,102330.81
2023-01-05T08:22:08.636Z,102336.24
2023-01-05T08:24:36.360Z,102335.91
2023-01-05T08:27:04.201Z,102349.26
2023-01-05T08:29:32.020Z,102350.10
2023-01-05T08:31:59.896Z,102336.14
2023-01-05T08:34:34.272Z,102328.10
2023-01-05T08:37:02.505Z,102342.72
2023-01-05T08:39:30.293Z,102337.84
2023-01-05T08:42:02.518Z,102337.84
2023-01-05T08:44:30.816Z,102348.11
2023-01-05T08:46:58.604Z,102349.06
2023-01-05T08:49:26.453Z,102340.69
2023-01-05T08:51:54.289Z,102354.12
2023-01-05T08:54:22.023Z,102348.44
2023-01-05T08:56:51.785Z,102356.13
2023-01-05T08:59:19.593Z,102361.45
2023-01-05T09:01:47.388Z,102355.76
2023-01-05T09:04:15.310Z,102365.99
2023-01-05T09:06:43.130Z,102376.98
2023-01-05T09:09:11.505Z,102368.94
2023-01-05T09:11:39.317Z,102362.59
2023-01-05T09:14:07.017Z,102360.57
2023-01-05T09:17:05.275Z,102356.80
2023-01-05T09:19:23.493Z,102355.76
2023-01-05T09:21:51.403Z,102370.25
2023-01-05T09:24:19.233Z,102359.88
2023-01-05T09:26:47.200Z,102366.20
2023-01-05T09:29:15.162Z,102379.01
2023-01-05T09:31:43.207Z,102373.81
2023-01-05T09:34:11.386Z,102374.95
2023-01-05T09:36:40.049Z,102381.85
2023-01-05T09:39:07.882Z,102384.30
2023-01-05T09:41:53.944Z,102385.09
2023-01-05T09:44:36.445Z,102377.57
2023-01-05T09:47:19.753Z,102374.10
2023-01-05T09:49:48.398Z,102384.05
2023-01-05T09:52:16.311Z,102385.25
2023-01-05T09:54:44.095Z,102389.08
2023-01-05T09:57:20.289Z,102389.02
2023-01-05T09:59:52.792Z,102389.87
2023-01-05T10:02:39.426Z,102384.17
2023-01-05T10:05:07.366Z,102386.20
2023-01-05T10:07:55.125Z,102389.83
2023-01-05T10:11:17.125Z,102394.48
2023-01-05T10:13:53.782Z,102399.02
2023-01-05T10:16:27.554Z,102396.70
2023-01-05T10:18:57.124Z,102390.35
2023-01-05T10:21:43.634Z,102390.35
2023-01-05T10:24:40.168Z,102384.83
2023-01-05T10:27:25.784Z,102385.16
2023-01-05T10:30:00.757Z,102375.09
2023-01-05T10:32:49.779Z,102379.23
2023-01-05T10:35:58.884Z,102370.51
2023-01-05T10:38:33.460Z,102370.51
2023-01-05T10:41:24.375Z,102376.13
2023-01-05T10:44:09.072Z,102379.76
2023-01-05T10:46:43.600Z,102372.41
2023-01-05T10:49:18.797Z,102380.61
2023-01-05T10:51:51.337Z,102369.20
2023-01-05T10:54:33.684Z,102371.98
2023-01-05T10:57:36.605Z,102374.76
2023-01-05T11:00:19.062Z,102365.15
2023-01-05T11:02:58.974Z,102361.29
2023-01-05T11:05:29.115Z,102348.24
2023-01-05T11:07:57.905Z,102354.91
2023-01-05T11:10:40.022Z,102353.08
2023-01-05T11:13:20.644Z,102364.69
2023-01-05T11:15:55.157Z,102351.22
2023-01-05T11:18:28.720Z,102359.95
2023-01-05T11:21:14.047Z,102352.49
2023-01-05T11:23:49.802Z,102355.37
2023-01-05T11:26:20.446Z,102346.51
2023-01-05T11:29:26.621Z,102345.66
2023-01-05T11:31:54.326Z,102349.74
2023-01-05T11:34:24.659Z,102353.31
2023-01-05T11:36:55.850Z,102357.89
2023-01-05T11:39:35.415Z,102372.47
2023-01-05T11:42:13.701Z,102368.41
2023-01-05T11:44:47.123Z,102371.95
2023-01-05T11:47:43.917Z,102373.13
2023-01-05T11:50:15.189Z,102360.21
2023-01-05T11:52:47.691Z,102368.64
2023-01-05T11:55:21.477Z,102357.13
2023-01-05T11:57:54.093Z,102361.35
2023-01-05T12:00:29.522Z,102352.23
2023-01-05T12:03:03.265Z,102344.58
2023-01-05T12:05:56.970Z,102347.23
2023-01-05T12:08:25.362Z,102345.46
2023-01-05T12:11:20.310Z,102349.88
2023-01-05T12:14:06.349Z,102352.23
2023-01-05T12:16:40.011Z,102348.54
2023-01-05T12:19:25.400Z,102345.66
2023-01-05T12:22:16.348Z,102338.92
2023-01-05T12:24:52.968Z,102344.80
2023-01-05T12:27:54.306Z,102345.79
2023-01-05T12:34:13.030Z,102341.08
2023-01-05T12:36:42.411Z,102347.49
2023-01-05T12:39:22.345Z,102339.12
2023-01-05T12:42:13.594Z,102340.27
2023-01-05T12:44:47.240Z,102344.94
2023-01-05T12:47:39.901Z,102345.43
2023-01-05T12:51:00.225Z,102344.80
2023-01-05T12:53:36.951Z,102351.25
2023-01-05T12:56:27.398Z,102352.95
2023-01-05T12:59:19.587Z,102347.39
2023-01-05T13:02:17.194Z,102342.06
2023-01-05T13:04:50.383Z,102348.11
2023-01-05T13:07:26.724Z,102345.76
2023-01-05T13:10:02.531Z,102347.78
2023-01-05T13:12:31.080Z,102351.12
2023-01-05T13:15:16.862Z,102355.99
2023-01-05T13:17:49.989Z,102347.55
2023-01-05T13:20:47.822Z,102340.62
2023-01-05T13:23:17.945Z,102350.79
2023-01-05T13:25:59.170Z,102344.16
2023-01-05T13:28:29.643Z,102345.66
2023-01-05T13:31:02.217Z,102346.51
2023-01-05T13:33:46.839Z,102352.23
2023-01-05T13:36:39.542Z,102345.46
2023-01-05T13:39:30.915Z,102348.02
2023-01-05T13:42:33.195Z,102337.71
2023-01-05T13:45:25.038Z,102338.89
2023-01-05T13:48:14.684Z,102335.20
2023-01-05T13:50:51.346Z,102345.30
2023-01-05T13:56:00.745Z,102356.41
2023-01-05T13:58:39.612Z,102347.62
2023-01-05T14:01:09.985Z,102351.15
2023-01-05T14:03:40.333Z,102353.84
2023-01-05T14:06:29.319Z,102356.05
2023-01-05T14:11:37.394Z,102351.67
2023-01-05T14:14:09.690Z,102348.80
2023-01-05T14:16:38.645Z,102354.55
2023-01-05T14:19:15.428Z,102354.55
2023-01-05T14:21:52.349Z,102358.25
2023-01-05T14:24:49.107Z,102358.90
2023-01-05T14:27:21.066Z,102360.41
2023-01-05T14:29:55.230Z,102365.63
2023-01-05T14:32:42.467Z,102370.51
2023-01-05T14:35:13.321Z,102363.45
2023-01-05T14:37:47.965Z,102359.69
2023-01-05T14:40:23.111Z,102362.56
2023-01-05T14:42:50.959Z,102362.56
2023-01-05T14:45:24.138Z,102368.64
2023-01-05T14:47:54.110Z,102368.64
2023-01-05T14:50:41.411Z,102368.64
2023-01-05T14:53:15.308Z,102379.27
2023-01-05T14:56:04.899Z,102374.17
2023-01-05T14:58:44.652Z,102375.97
2023-01-05T15:01:18.294Z,102375.48
2023-01-05T15:03:52.054Z,102369.23
2023-01-05T15:06:39.429Z,102379.01
2023-01-05T15:09:16.429Z,102374.76
2023-01-05T15:12:33.706Z,102381.98
2023-01-05T15:15:13.550Z,102376.06
2023-01-05T15:17:54.838Z,102386.13
2023-01-05T15:20:39.080Z,102383.95
2023-01-05T15:26:38.162Z,102390.42
2023-01-05T15:29:36.259Z,102388.20
2023-01-05T15:32:22.269Z,102387.51
2023-01-05T15:35:23.190Z,102386.13
2023-01-05T15:37:53.347Z,102385.41
2023-01-05T15:40:23.991Z,102396.86
2023-01-05T15:42:53.873Z,102383.20
2023-01-05T15:45:27.515Z,102378.09
2023-01-05T15:47:55.759Z,102386.37
2023-01-05T15:50:40.098Z,102401.30
2023-01-05T15:53:07.893Z,102391.70
2023-01-05T15:55:35.727Z,102392.22
2023-01-05T15:58:06.474Z,102400.30
2023-01-05T16:00:36.484Z,102394.90
2023-01-05T16:03:23.457Z,102394.67
2023-01-05T16:05:51.867Z,102395.00
2023-01-05T16:08:19.667Z,102401.90
2023-01-05T16:11:00.730Z,102391.92
2023-01-05T16:13:38.273Z,102405.72
2023-01-05T16:16:12.950Z,102409.74
2023-01-05T16:18:45.020Z,102411.77
2023-01-05T16:21:24.053Z,102410.04
2023-01-05T16:24:07.150Z,102409.19
2023-01-05T16:26:36.781Z,102410.37
2023-01-05T16:29:20.895Z,102408.44
2023-01-05T16:31:56.559Z,102406.77
2023-01-05T16:34:32.370Z,102405.36
2023-01-05T16:37:18.649Z,102393.40
2023-01-05T16:39:46.971Z,102403.79
2023-01-05T16:42:38.831Z,102405.49
2023-01-05T16:45:26.308Z,102408.47
2023-01-05T16:47:54.429Z,102407.39
2023-01-05T16:50:22.052Z,102410.27
2023-01-05T16:53:00.882Z,102406.34
2023-01-05T16:55:36.651Z,102413.44
2023-01-05T16:58:06.182Z,102403.17
2023-01-05T17:00:35.134Z,102407.00
2023-01-05T17:03:04.027Z,102417.59
2023-01-05T17:05:34.664Z,102429.88
2023-01-05T17:08:06.674Z,102419.26
2023-01-05T17:10:34.493Z,102419.26
2023-01-05T17:13:06.489Z,102419.62
2023-01-05T17:15:35.749Z,102414.52
2023-01-05T17:20:53.771Z,102404.97
2023-01-05T17:23:21.496Z,102414.42
2023-01-05T17:25:49.221Z,102413.34
2023-01-05T17:28:17.042Z,102418.21
2023-01-05T17:30:44.971Z,102410.79
2023-01-05T17:33:12.802Z,102418.84
2023-01-05T17:35:40.677Z,102416.31
2023-01-05T17:38:08.448Z,102422.89
2023-01-05T17:40:36.348Z,102420.01
2023-01-05T17:43:04.104Z,102417.49
2023-01-05T17:45:32.223Z,102408.89
2023-01-05T17:48:00.036Z,102405.49
2023-01-05T17:53:00.480Z,102414.71
2023-01-05T17:55:28.967Z,102417.88
2023-01-05T17:57:56.909Z,102418.51
2023-01-05T18:00:25.649Z,102427.43
2023-01-05T18:02:54.153Z,102423.18
2023-01-05T18:05:22.308Z,102418.08
2023-01-05T18:07:50.280Z,102422.95
2023-01-05T18:10:21.745Z,102424.23
2023-01-05T18:12:49.736Z,102419.75
2023-01-05T18:15:17.629Z,102419.84
2023-01-05T18:17:45.406Z,102425.34
2023-01-05T18:20:16.084Z,102419.20
2023-01-05T18:22:45.538Z,102427.23
2023-01-05T18:25:13.782Z,102430.41
2023-01-05T18:27:41.616Z,102427.63
2023-01-05T18:30:10.050Z,102418.51
2023-01-05T18:32:38.594Z,102413.21
2023-01-05T18:35:09.804Z,102422.73
2023-01-05T18:37:38.384Z,102419.62
2023-01-05T18:40:06.804Z,102415.70
2023-01-05T18:42:34.600Z,102413.47
2023-01-05T18:45:13.695Z,102416.94
2023-01-05T18:47:50.122Z,102421.88
2023-01-05T18:50:18.048Z,102418.87
2023-01-05T18:52:45.743Z,102418.70
2023-01-05T18:55:13.605Z,102424.72
2023-01-05T18:57:41.422Z,102421.94
2023-01-05T19:00:10.041Z,102409.45
2023-01-05T19:02:37.902Z,102418.87
2023-01-05T19:05:06.041Z,102409.45
2023-01-05T19:07:33.819Z,102408.37
2023-01-05T19:10:01.603Z,102406.15
2023-01-05T19:12:29.398Z,102405.27
2023-01-05T19:14:57.225Z,102407.29
2023-01-05T19:17:24.989Z,102409.05
2023-01-05T19:19:52.973Z,102409.68
2023-01-05T19:22:20.671Z,102407.98
2023-01-05T19:24:48.539Z,102407.20
2023-01-05T19:27:16.316Z,102405.88
2023-01-05T19:29:44.113Z,102401.11
2023-01-05T19:32:11.952Z,102399.15
2023-01-05T19:34:39.772Z,102396.01
2023-01-05T19:37:07.773Z,102397.65
2023-01-05T19:39:35.857Z,102390.98
2023-01-05T19:42:03.689Z,102384.21
2023-01-05T19:44:31.484Z,102388.75
2023-01-05T19:46:59.399Z,102385.05
2023-01-05T19:49:28.024Z,102398.46
2023-01-05T19:51:55.923Z,102393.69
2023-01-05T19:54:24.033Z,102381.79
2023-01-05T19:56:52.025Z,102377.87
2023-01-05T19:59:25.943Z,102383.88
2023-01-05T20:01:54.525Z,102382.48
2023-01-05T20:04:22.406Z,102379.70
2023-01-05T20:06:50.262Z,102382.93
2023-01-05T20:09:18.967Z,102377.83
2023-01-05T20:11:51.469Z,102377.83
2023-01-05T20:14:32.040Z,102372.99
2023-01-05T20:17:04.638Z,102372.14
2023-01-05T20:19:33.540Z,102364.20
2023-01-05T20:22:02.495Z,102357.95
2023-01-05T20:24:31.842Z,102360.02
2023-01-05T20:27:01.861Z,102364.85
2023-01-05T20:29:30.023Z,102364.63
2023-01-05T20:32:00.268Z,102365.02
2023-01-05T20:34:32.846Z,102372.77
2023-01-05T20:37:01.136Z,102382.54
2023-01-05T20:39:28.949Z,102372.57
2023-01-05T20:41:56.760Z,102370.02
2023-01-05T20:44:26.199Z,102366.65
2023-01-05T20:46:54.963Z,102381.16
2023-01-05T20:49:23.390Z,102377.24
2023-01-05T20:51:51.186Z,102374.66
2023-01-05T20:54:19.052Z,102379.86
2023-01-05T20:56:47.700Z,102372.27
2023-01-05T20:59:20.029Z,102378.55
2023-01-05T21:01:47.988Z,102366.29
2023-01-05T21:04:15.892Z,102381.33
2023-01-05T21:06:43.790Z,102367.70
2023-01-05T21:09:11.667Z,102370.02
2023-01-05T21:11:39.572Z,102368.28
2023-01-05T21:14:07.877Z,102368.38
2023-01-05T21:16:41.325Z,102362.10
2023-01-05T21:19:09.931Z,102362.73
2023-01-05T21:21:38.700Z,102365.93
2023-01-05T21:24:08.933Z,102364.20
2023-01-05T21:26:36.833Z,102362.27
2023-01-05T21:29:06.866Z,102366.88
2023-01-05T21:31:35.007Z,102370.34
2023-01-05T21:34:02.828Z,102369.20
2023-01-05T21:36:31.639Z,102372.63
2023-01-05T21:39:04.063Z,102376.10
2023-01-05T21:41:51.574Z,102368.45
2023-01-05T21:44:19.384Z,102370.18
2023-01-05T21:46:47.323Z,102361.35
2023-01-05T21:49:15.595Z,102362.76
2023-01-05T21:52:01.883Z,102362.53
2023-01-05T21:54:48.302Z,102356.25
2023-01-05T21:57:16.178Z,102356.32
2023-01-05T21:59:44.532Z,102354.68
2023-01-05T22:02:12.602Z,102357.82
2023-01-05T22:04:40.437Z,102346.45
2023-01-05T22:07:08.532Z,102350.10
2023-01-05T22:09:36.964Z,102340.43
2023-01-05T22:12:10.916Z,102336.11
2023-01-05T22:14:38.846Z,102332.41
2023-01-05T22:17:08.197Z,102330.78
2023-01-05T22:19:36.144Z,102328.52
2023-01-05T22:22:04.135Z,102332.29
2023-01-05T22:24:31.848Z,102322.09
2023-01-05T22:26:59.674Z,102326.92
2023-01-05T22:29:27.592Z,102330.88
2023-01-05T22:31:55.507Z,102326.95
2023-01-05T22:34:23.394Z,102322.45
2023-01-05T22:36:51.285Z,102322.77
2023-01-05T22:39:19.062Z,102314.83
2023-01-05T22:41:47.704Z,102323.36
2023-01-05T22:44:15.474Z,102314.86
2023-01-05T22:46:43.429Z,102316.27
2023-01-05T22:49:13.926Z,102311.13
2023-01-05T22:51:44.401Z,102312.83
2023-01-05T22:54:12.181Z,102305.15
2023-01-05T22:56:40.020Z,102307.44
2023-01-05T22:59:07.858Z,102311.75
2023-01-05T23:01:37.978Z,102299.55
2023-01-05T23:04:07.085Z,102304.40
2023-01-05T23:06:35.178Z,102306.69
2023-01-05T23:09:03.864Z,102307.01
2023-01-05T23:11:33.936Z,102303.25
2023-01-05T23:14:02.665Z,102310.64
2023-01-05T23:16:30.577Z,102304.40
2023-01-05T23:18:58.482Z,102301.59
2023-01-05T23:21:26.824Z,102296.22
2023-01-05T23:23:56.465Z,102293.09
2023-01-05T23:26:24.808Z,102283.70
2023-01-05T23:28:52.725Z,102282.62
2023-01-05T23:31:20.700Z,102282.62
2023-01-05T23:33:49.017Z,102284.65
2023-01-05T23:36:17.640Z,102279.84
2023-01-05T23:38:45.640Z,102282.98
2023-01-05T23:41:14.290Z,102269.67
2023-01-05T23:43:42.908Z,102272.26
2023-01-05T23:46:12.458Z,102277.36
2023-01-05T23:48:40.389Z,102271.99
2023-01-05T23:51:12.403Z,102267.74
2023-01-05T23:53:44.522Z,102272.84
2023-01-05T23:56:17.229Z,102262.38
2023-01-05T23:58:45.159Z,102257.80
